Bookmark and Share
Track history (hours):
 

Finnmill

Last reported at 2013-Jul-30 08:25 UTC. Time now 2014-Apr-23 12:44 UTC.
Position N 60°29' E 026°57'.
Warning: this ship's position is months out of date.

Length 186 m; draft 6.4 m.

Type: Ship. MMSI: 266293983.

NotesDate/timePositionNaut miles runAvg speedWind from/ knotsBaromVisibWave heightAir tempDewpointWater temp
2013-Jul-30 08:25N 60°29' E 026°57'0 0.0
2013-Jul-30 07:31N 60°29' E 026°57'0 0.0
2013-Jul-30 06:31N 60°29' E 026°57'0 0.0
2013-Jul-30 05:31N 60°29' E 026°57'0 0.0
2013-Jul-30 04:31N 60°29' E 026°57'0 0.0
2013-Jul-30 03:33N 60°29' E 026°57'0 0.0
2013-Jul-30 02:33N 60°29' E 026°57'2 1.5
2013-Jul-30 01:33N 60°28' E 026°58'1515.4
2013-Jul-30 00:34N 60°18' E 026°34'1312.9
2013-Jul-29 23:33N 60°05' E 026°37'10615.0
2013-Jul-29 16:28N 59°54' E 030°08'0 0.0
2013-Jul-29 02:24N 59°53' E 030°09'10214.5
2013-Jul-28 19:21N 59°59' E 026°46'1518.7
2013-Jul-28 18:33N 59°56' E 026°16'1918.8
2013-Jul-28 17:33N 59°52' E 025°40'1818.1
2013-Jul-28 16:33N 60°04' E 025°12'9 6.4
2013-Jul-28 15:07N 60°13' E 025°12'0 0.0
2013-Jul-28 14:25N 60°13' E 025°12'0 0.0
2013-Jul-28 13:31N 60°13' E 025°12'0 0.0
2013-Jul-28 12:31N 60°13' E 025°12'0 0.0
2013-Jul-28 11:28N 60°13' E 025°12'0 0.0
2013-Jul-28 10:33N 60°13' E 025°12'1110.7
2013-Jul-28 09:33N 60°02' E 025°08'1615.6
2013-Jul-28 08:33N 59°50' E 024°48'1615.9
2013-Jul-28 07:33N 59°43' E 024°20'1716.5
2013-Jul-28 06:33N 59°38' E 023°49'1716.6
2013-Jul-28 05:33N 59°33' E 023°18'1716.6
2013-Jul-28 04:33N 59°28' E 022°46'1716.7
2013-Jul-28 03:32N 59°18' E 022°19'6616.5
2013-Jul-27 23:31N 58°28' E 020°55'6716.7
2013-Jul-27 19:31N 57°34' E 019°40'2216.7
2013-Jul-27 18:10N 57°16' E 019°15'1016.8
2013-Jul-27 17:33N 57°08' E 019°04'1716.6
2013-Jul-27 16:33N 56°55' E 018°45'1716.8
2013-Jul-27 15:34N 56°44' E 018°21'1716.6
2013-Jul-27 14:34N 56°34' E 017°57'1716.6
2013-Jul-27 13:33N 56°24' E 017°34'1716.8
2013-Jul-27 12:33N 56°13' E 017°10'1716.8
2013-Jul-27 11:32N 56°03' E 016°46'1716.8
2013-Jul-27 10:30N 55°53' E 016°20'1616.8
2013-Jul-27 09:33N 55°45' E 015°55'1716.8
2013-Jul-27 08:33N 55°38' E 015°28'1616.5
2013-Jul-27 07:33N 55°30' E 015°03'1616.1
2013-Jul-27 06:34N 55°23' E 014°38'1616.0
2013-Jul-27 05:34N 55°11' E 014°18'1616.4
2013-Jul-27 04:34N 55°11' E 013°49'1616.3
2013-Jul-27 03:34N 55°13' E 013°21'1716.6
2013-Jul-27 02:33N 55°15' E 012°52'1312.6
2013-Jul-27 01:33N 55°26' E 012°40'1312.6
2013-Jul-27 00:34N 55°38' E 012°42'1413.6
2013-Jul-26 23:33N 55°52' E 012°40'1514.8
2013-Jul-26 22:33N 56°06' E 012°33'1515.2
2013-Jul-26 21:33N 56°11' E 012°07'1616.0
2013-Jul-26 20:33N 56°08' E 011°38'1715.9
2013-Jul-26 19:29N 56°06' E 011°08'1415.8
2013-Jul-26 18:33N 56°03' E 010°42'1616.0
2013-Jul-26 17:33N 56°09' E 010°16'2 0.0
2013-Jul-25 05:31N 56°09' E 010°13'0 0.0
2013-Jul-25 04:33N 56°09' E 010°13'8 6.7
2013-Jul-25 03:20N 56°06' E 010°27'1316.8
2013-Jul-25 02:33N 56°03' E 010°50'1717.2
2013-Jul-25 01:33N 56°07' E 011°20'1717.2
2013-Jul-25 00:33N 56°09' E 011°50'1717.1
2013-Jul-24 23:33N 56°11' E 012°21'1615.9
2013-Jul-24 22:33N 55°60' E 012°42'1616.3
2013-Jul-24 21:33N 55°43' E 012°41'1413.8
2013-Jul-24 20:34N 55°30' E 012°43'1313.2
2013-Jul-24 19:34N 55°17' E 012°48'1616.4
2013-Jul-24 18:34N 55°15' E 013°16'1616.5
2013-Jul-24 17:34N 55°14' E 013°45'44617.8
2013-Jul-23 16:34N 59°49' E 024°38'1918.5
2013-Jul-23 15:34N 60°01' E 025°06'10 0.3
2013-Jul-22 01:33N 59°53' E 024°55'1515.4
2013-Jul-22 00:33N 59°44' E 024°31'27915.4
2013-Jul-21 06:28N 56°36' E 018°01'3715.9
2013-Jul-21 04:08N 56°13' E 017°09'915.9
2013-Jul-21 03:33N 56°07' E 016°55'1615.9
2013-Jul-21 02:34N 55°58' E 016°32'1616.0
2013-Jul-21 01:34N 55°50' E 016°07'1616.2
2013-Jul-21 00:33N 55°42' E 015°42'1616.2
2013-Jul-20 23:34N 55°34' E 015°17'1616.0
2013-Jul-20 22:33N 55°27' E 014°52'1615.7
2013-Jul-20 21:34N 55°17' E 014°31'1616.0
2013-Jul-20 20:34N 55°04' E 014°14'1615.5
2013-Jul-20 19:34N 54°57' E 013°49'1616.0
2013-Jul-20 18:34N 54°52' E 013°23'1616.1
2013-Jul-20 17:34N 54°47' E 012°57'1616.1
2013-Jul-20 16:33N 54°40' E 012°32'1515.4
2013-Jul-20 15:33N 54°28' E 012°15'1515.3
2013-Jul-20 14:34N 54°14' E 012°05'5 4.8
2013-Jul-20 13:33N 54°09' E 012°06'0 0.0
2013-Jul-20 12:30N 54°09' E 012°06'0 0.0
2013-Jul-20 11:30N 54°09' E 012°06'0 0.0
2013-Jul-20 09:30N 54°09' E 012°06'  

Dump ship's entire track history

sailing weather and tide predictions

Finnmill — SCIO — position and weather